METAR Data
IDs: Format: Raw Decoded Include TAF

Data at: 0242 UTC 25 Jan 2020

METAR for:KADU (Audubon Cnty Arpt, IA, US)
Text:KADU 250235Z AUTO 33009KT 10SM OVC014 M02/M04 A3002 RMK AO2
Temperature: -2.0°C ( 28°F)
Dewpoint: -4.0°C ( 25°F) [RH = 86%]
Pressure (altimeter):30.02 inches Hg (1016.7 mb)
Winds:from the NNW (330 degrees) at 10 MPH (9 knots; 4.6 m/s)
Visibility:10 or more sm (16+ km)
Ceiling:1400 feet AGL
Clouds: overcast cloud deck at 1400 feet AGL
QC Flag:automated observation with no human augmentation